Columbus, Ohio
Traffic Map
Current Weather Conditions
Columbus, Ohio
Clear
Clear
17°
Feels Like: 17°
Wind Chill: 17° Ceiling: Unl
Heat Index: 17° Visibility: 10mi
Dew Point: 11° Wind: 9mph
Humidity: 67% Direction: 220° (SW)
Pressure: 29.95in Gusts: 0mph
Raw Report DataKCMH 271451Z 22008KT 10SM CLR 17/11 A2995 RMK AO2 SLP141 T01670106 58006
Traffic Incident Summary
Active as of:
Severity:
Category:
InformationThere was an issue retrieving the traffic information for this location. Please try a different location or try again shortly.
Advertisements
Track Severe Weather on mobile